KDYS

Dyess AFB Airport

Abilene, Texas, USA
METAR KDYS 170756Z 22005KT 10SM FEW150 BKN210 06/02 A3029 RMK AO2A SLPNO ALSTG ESTMD $
Observed Flight Rules
Dec-17 @ 07:56 UTC (26 minutes ago) Visual Flight Rules
Wind Visibility Clouds
220° at 5 knots 10 miles
  • Few at 15,000' AGL
  • Broken at 21,000' AGL
Temperatures Readings
Current 6°C / 43°F
Dewpoint 2°C / 36°F
Humidity 76%
Altimeter 30.29" Hg
Pressure 1026 hPa
Elevation 545
METAR KDYS 170756Z 22005KT 10SM FEW150 BKN210 06/02 A3029 RMK AO2A SLPNO ALSTG ESTMD $
Observed Flight Rules
Dec-17 @ 07:56 UTC
(26 minutes ago)
VFR
Wind Visibility
220° at 5 knots 10 miles
Clouds
  • Few at 15,000' AGL
  • Broken at 21,000' AGL
Temperature Dewpoint
6°C / 43°F 2°C / 36°F
Humidity Altimeter Pressure
76% 30.29" Hg 1026 hPa